Lacarne, Ohio
Current Conditions -  °F | °C
As of 2:32 PM on Wednesday 17 Dec 2014 (Local Time) from KPCW Reporting Station
Overcast Overcast  
Wind Chill: 23°   Ceiling: 2500
Heat Index: 34°   Visibility: 10mi
Dew Point: 25°   Wind: 17mph
Humidity: 70%   Direction: 270°W
Pressure: 30.1"   Gusts: NA
Location:  41.52°N, 83.04°W
Report Text: KPCW 171932Z AUTO 27015KT 10SM OVC025 01/M04 A3010 RMK AO2 $
Loading
Personal Weather Stations






























Interactive Weather Map New forecast layout! Learn more

10-Day Weather Forecast

Advertisements
Track Severe Weather on mobile